Terminal Aerodrome Forecast
Issued by NWS Jackson, MS

Home | Current Version | Previous Version | Text Only | Print | Product List | Glossary On
Versions: 1 2 3 4 5 6 7 8 9 10 11 12 13 14 15 16 17 18 19 20 21 22
000
FTUS44 KMEG 171435 AAA
TAFTUP
TAF AMD
KTUP 171435Z 1715/1812 21005KT P6SM VCSH SCT020 OVC050
      TEMPO 1715/1718 2SM -SHRA OVC015
     FM171900 25006KT 6SM BR VCSH BKN015
     FM172300 28005KT P6SM SCT020 BKN030
     FM180300 36004KT 4SM BR OVC005=

USA.gov is the U.S. government's official web portal to all federal, state and local government web resources and services.